Time;durP1;ratioP1;P1;durP2;ratioP2;P2;SDS_P1;SDS_P2;PMS_P1;PMS_P2;Temp;Humidity;BMP_temperature;BMP_pressure;BME280_temperature;BME280_humidity;BME280_pressure;Samples;Min_cycle;Max_cycle;Signal;HPM_P1;HPM_P2
2023/03/11 00:01:39;;;;;;;4.47;1.92;;;2.30;99.90;;;;;;5033944;28;20160;-46
2023/03/11 00:04:06;;;;;;;4.90;1.33;;;2.40;99.90;;;;;;5034045;28;20183;-52
2023/03/11 00:06:34;;;;;;;1.73;1.33;;;2.40;99.90;;;;;;5033955;28;20222;-43
2023/03/11 00:08:59;;;;;;;4.90;1.52;;;2.30;99.90;;;;;;5033921;28;20222;-45
2023/03/11 00:11:25;;;;;;;10.07;2.05;;;2.30;99.90;;;;;;5033892;28;20180;-45
2023/03/11 00:13:50;;;;;;;12.00;1.42;;;2.40;99.90;;;;;;5033827;28;20298;-49
2023/03/11 00:16:16;;;;;;;9.98;1.80;;;2.40;99.90;;;;;;5034398;28;20222;-45
2023/03/11 00:18:42;;;;;;;7.72;1.67;;;2.40;99.90;;;;;;5033691;28;20619;-44
2023/03/11 00:21:15;;;;;;;11.35;1.90;;;2.40;99.90;;;;;;5033652;28;20758;-49
2023/03/11 00:23:41;;;;;;;7.18;1.88;;;2.40;99.90;;;;;;5033706;28;20163;-51
2023/03/11 00:26:06;;;;;;;10.82;1.70;;;2.40;99.90;;;;;;5033640;28;20329;-44
2023/03/11 00:28:32;;;;;;;8.73;1.63;;;2.50;99.90;;;;;;5033353;28;20171;-43
2023/03/11 00:30:57;;;;;;;5.65;2.17;;;2.40;99.90;;;;;;5033240;28;20236;-43
2023/03/11 00:33:24;;;;;;;5.78;1.75;;;2.40;99.90;;;;;;5031933;28;20169;-46
2023/03/11 00:35:50;;;;;;;4.10;1.40;;;2.40;99.90;;;;;;5033338;28;20209;-43
2023/03/11 00:38:16;;;;;;;6.35;2.05;;;2.40;99.90;;;;;;5033799;28;20168;-44
2023/03/11 00:40:44;;;;;;;4.13;1.55;;;2.40;99.90;;;;;;5033288;28;20246;-45
2023/03/11 00:43:10;;;;;;;9.23;1.77;;;2.40;99.90;;;;;;5033424;28;20592;-43
2023/03/11 00:45:36;;;;;;;6.90;2.13;;;2.40;99.90;;;;;;5033141;28;20251;-45
2023/03/11 00:48:02;;;;;;;8.73;1.60;;;2.40;99.90;;;;;;5033279;28;20259;-45
2023/03/11 00:50:30;;;;;;;6.75;1.63;;;2.50;99.90;;;;;;5033140;28;20171;-43
2023/03/11 00:52:57;;;;;;;7.68;2.00;;;2.50;99.90;;;;;;5032992;28;20191;-50
2023/03/11 00:55:25;;;;;;;4.18;1.65;;;2.50;99.90;;;;;;5033035;28;20689;-43
2023/03/11 00:57:53;;;;;;;6.45;1.52;;;2.60;99.90;;;;;;5032709;28;20213;-42
2023/03/11 01:00:20;;;;;;;8.80;1.52;;;2.60;99.90;;;;;;5033058;28;20676;-43
2023/03/11 01:02:46;;;;;;;4.15;1.40;;;2.60;99.90;;;;;;5033154;28;20175;-45
2023/03/11 01:05:11;;;;;;;9.45;1.77;;;2.50;99.90;;;;;;5032131;28;20221;-43
2023/03/11 01:07:37;;;;;;;11.77;2.03;;;2.50;99.90;;;;;;5031407;28;20662;-43
2023/03/11 01:10:05;;;;;;;7.45;1.88;;;2.50;99.90;;;;;;5033013;28;20171;-53
2023/03/11 01:12:31;;;;;;;6.20;1.75;;;2.50;99.90;;;;;;5032621;28;20171;-51
2023/03/11 01:14:56;;;;;;;4.13;1.95;;;2.60;99.90;;;;;;5032789;28;20253;-52
2023/03/11 01:17:22;;;;;;;6.97;1.50;;;2.50;99.90;;;;;;5032509;28;20532;-52
2023/03/11 01:19:48;;;;;;;10.80;2.55;;;2.50;99.90;;;;;;5032917;28;20171;-52
2023/03/11 01:22:14;;;;;;;7.75;2.38;;;2.50;99.90;;;;;;5032884;28;20639;-51
2023/03/11 01:24:40;;;;;;;7.03;1.88;;;2.50;99.90;;;;;;5032414;28;20202;-48
2023/03/11 01:27:06;;;;;;;3.55;1.35;;;2.50;99.90;;;;;;5032353;28;20199;-51
2023/03/11 01:29:31;;;;;;;11.88;1.95;;;2.50;99.90;;;;;;5032023;28;20186;-52
2023/03/11 01:31:58;;;;;;;4.80;2.08;;;2.50;99.90;;;;;;5032315;28;20627;-52
2023/03/11 01:34:24;;;;;;;6.47;1.02;;;2.40;99.90;;;;;;5032519;28;20222;-52
2023/03/11 01:36:49;;;;;;;4.32;1.52;;;2.40;99.90;;;;;;5032204;28;20171;-45
2023/03/11 01:39:15;;;;;;;7.25;2.15;;;2.40;99.90;;;;;;5032624;28;20226;-51
2023/03/11 01:41:40;;;;;;;4.38;1.45;;;2.40;99.90;;;;;;5032379;28;20174;-44
2023/03/11 01:44:09;;;;;;;6.38;1.80;;;2.30;99.90;;;;;;5031703;28;20254;-42
2023/03/11 01:46:53;;;;;;;6.25;1.80;;;2.30;99.90;;;;;;5032047;28;20712;-45
2023/03/11 01:49:20;;;;;;;8.77;2.00;;;2.30;99.90;;;;;;5032318;28;20163;-44
2023/03/11 01:51:59;;;;;;;5.95;1.58;;;2.30;99.90;;;;;;5032310;28;20176;-42
2023/03/11 01:54:32;;;;;;;8.02;1.77;;;2.30;99.90;;;;;;5031649;28;20203;-42
2023/03/11 01:56:59;;;;;;;5.57;1.85;;;2.20;99.90;;;;;;5032173;28;20198;-42
2023/03/11 01:59:31;;;;;;;9.13;2.00;;;2.10;99.90;;;;;;5031553;28;20561;-42
2023/03/11 02:02:21;;;;;;;10.60;2.30;;;2.10;99.90;;;;;;5031767;28;20246;-42
2023/03/11 02:04:48;;;;;;;4.65;1.55;;;2.10;99.90;;;;;;5032245;28;20254;-42
2023/03/11 02:07:14;;;;;;;3.25;1.55;;;2.10;99.90;;;;;;5031775;28;20225;-43
2023/03/11 02:09:40;;;;;;;5.40;1.40;;;2.10;99.90;;;;;;5031763;28;20254;-47
2023/03/11 02:12:08;;;;;;;10.43;1.80;;;2.00;99.90;;;;;;5031881;28;20178;-44
2023/03/11 02:14:35;;;;;;;6.28;1.15;;;1.90;99.90;;;;;;5031460;28;20289;-43
2023/03/11 02:17:00;;;;;;;4.65;1.40;;;1.90;99.90;;;;;;5031535;28;20172;-43
2023/03/11 02:19:51;;;;;;;9.95;1.13;;;1.90;99.90;;;;;;5031635;28;20167;-42
2023/03/11 02:22:17;;;;;;;3.53;0.95;;;1.90;99.90;;;;;;5032182;28;20217;-47
2023/03/11 02:25:00;;;;;;;6.43;1.55;;;1.80;99.90;;;;;;5031367;28;20164;-45
2023/03/11 02:27:29;;;;;;;11.00;1.80;;;1.90;99.90;;;;;;5030021;28;20167;-46
2023/03/11 02:29:57;;;;;;;9.93;1.70;;;1.80;99.90;;;;;;5031138;28;20182;-43
2023/03/11 02:32:23;;;;;;;9.88;1.58;;;1.80;99.90;;;;;;5031314;28;20591;-43
2023/03/11 02:34:49;;;;;;;11.75;1.73;;;1.80;99.90;;;;;;5031272;28;20237;-43
2023/03/11 02:37:16;;;;;;;3.90;1.23;;;1.70;99.90;;;;;;5031817;28;20167;-43
2023/03/11 02:39:44;;;;;;;5.70;1.42;;;1.80;99.90;;;;;;5031261;28;20178;-43
2023/03/11 02:42:12;;;;;;;7.80;1.40;;;1.70;99.90;;;;;;5031408;28;20565;-49
2023/03/11 02:44:40;;;;;;;2.10;0.95;;;1.70;99.90;;;;;;5031624;28;20167;-45
2023/03/11 02:47:06;;;;;;;1.55;1.38;;;1.70;99.90;;;;;;5031505;28;20167;-45
2023/03/11 02:49:32;;;;;;;4.10;1.50;;;1.70;99.90;;;;;;5031266;28;20224;-43
2023/03/11 02:51:57;;;;;;;5.13;1.60;;;1.60;99.90;;;;;;5031556;28;20163;-43
2023/03/11 02:54:23;;;;;;;6.70;1.60;;;1.60;99.90;;;;;;5031666;28;20202;-45
2023/03/11 02:56:48;;;;;;;5.93;2.45;;;1.60;99.90;;;;;;5034943;28;20175;-43
2023/03/11 02:59:14;;;;;;;8.15;1.83;;;1.60;99.90;;;;;;5036134;28;20574;-45
2023/03/11 03:01:39;;;;;;;4.45;1.65;;;1.50;99.90;;;;;;5035618;28;20175;-45
2023/03/11 03:04:05;;;;;;;8.38;1.52;;;1.50;99.90;;;;;;5035383;28;20542;-42
2023/03/11 03:06:30;;;;;;;6.45;1.25;;;1.60;99.90;;;;;;5035447;28;20329;-43
2023/03/11 03:08:56;;;;;;;3.83;1.50;;;1.50;99.90;;;;;;5035253;28;20175;-45
2023/03/11 03:11:22;;;;;;;2.70;1.50;;;1.60;99.90;;;;;;5035646;28;20171;-43
2023/03/11 03:13:47;;;;;;;10.88;1.67;;;1.50;99.90;;;;;;5035610;28;20210;-43
2023/03/11 03:16:13;;;;;;;8.10;2.10;;;1.50;99.90;;;;;;5035235;28;20178;-45
2023/03/11 03:18:38;;;;;;;9.00;1.90;;;1.40;99.90;;;;;;5035264;28;20168;-45
2023/03/11 03:21:04;;;;;;;5.30;1.67;;;1.40;99.90;;;;;;5035146;28;20706;-44
2023/03/11 03:23:33;;;;;;;4.85;1.60;;;1.40;99.90;;;;;;5035208;28;20176;-46
2023/03/11 03:26:00;;;;;;;5.88;1.90;;;1.40;99.90;;;;;;5034842;28;20202;-47
2023/03/11 03:28:26;;;;;;;4.72;2.13;;;1.40;99.90;;;;;;5034837;28;20171;-45
2023/03/11 03:30:52;;;;;;;4.65;2.40;;;1.40;99.90;;;;;;5035067;28;20164;-44
2023/03/11 03:33:17;;;;;;;4.63;1.60;;;1.30;99.90;;;;;;5035467;28;20168;-42
2023/03/11 03:35:44;;;;;;;5.22;1.88;;;1.40;99.90;;;;;;5034826;28;20210;-44
2023/03/11 03:38:10;;;;;;;6.72;2.30;;;1.30;99.90;;;;;;5034817;28;20557;-43
2023/03/11 03:40:36;;;;;;;4.30;1.30;;;1.30;99.90;;;;;;5034878;28;20171;-44
2023/03/11 03:43:02;;;;;;;5.95;1.48;;;1.30;99.90;;;;;;5034875;28;20186;-45
2023/03/11 03:45:27;;;;;;;4.50;1.77;;;1.30;99.90;;;;;;5034879;28;20186;-43
2023/03/11 03:47:53;;;;;;;5.45;2.00;;;1.30;99.90;;;;;;5034381;28;20237;-46
2023/03/11 03:50:18;;;;;;;5.35;1.67;;;1.20;99.90;;;;;;5034742;28;20171;-43
2023/03/11 03:52:44;;;;;;;1.85;1.30;;;1.20;99.90;;;;;;5035137;28;20164;-45
2023/03/11 03:55:10;;;;;;;7.82;2.00;;;1.30;99.90;;;;;;5034537;28;20207;-52
2023/03/11 03:57:35;;;;;;;5.10;1.60;;;1.20;99.90;;;;;;5034502;28;20209;-51
2023/03/11 04:00:01;;;;;;;11.32;2.00;;;1.20;99.90;;;;;;5034655;28;20175;-52
2023/03/11 04:02:27;;;;;;;7.97;2.03;;;1.20;99.90;;;;;;5034493;28;20171;-51
2023/03/11 04:04:52;;;;;;;3.45;1.52;;;1.20;99.90;;;;;;5034634;28;20175;-52
2023/03/11 04:07:18;;;;;;;8.88;1.73;;;1.20;99.90;;;;;;5032825;28;20207;-47
2023/03/11 04:09:43;;;;;;;5.60;1.77;;;3.80;99.90;;;;;;5033807;28;20257;-43
2023/03/11 04:12:13;;;;;;;6.50;1.90;;;1.20;99.90;;;;;;5033908;28;20251;-44
2023/03/11 04:14:39;;;;;;;11.95;2.15;;;1.20;99.90;;;;;;5033716;28;20211;-46
2023/03/11 04:17:05;;;;;;;10.55;2.22;;;1.30;99.90;;;;;;5033623;28;20616;-43
2023/03/11 04:19:31;;;;;;;6.47;1.48;;;1.30;99.90;;;;;;5033607;28;20175;-45
2023/03/11 04:21:57;;;;;;;6.38;2.08;;;1.30;99.90;;;;;;5033680;28;20665;-42
2023/03/11 04:24:22;;;;;;;6.75;1.60;;;1.30;99.90;;;;;;5033694;28;20183;-43
2023/03/11 04:26:48;;;;;;;4.85;2.05;;;1.30;99.90;;;;;;5033547;28;20693;-43
2023/03/11 04:29:14;;;;;;;10.85;1.80;;;1.30;99.90;;;;;;5033778;28;20171;-44
2023/03/11 04:31:39;;;;;;;5.32;2.10;;;1.30;99.90;;;;;;5033631;28;20199;-45
2023/03/11 04:34:05;;;;;;;8.23;1.75;;;1.30;99.90;;;;;;5033304;28;20191;-44
2023/03/11 04:36:31;;;;;;;6.97;1.90;;;1.20;99.90;;;;;;5033440;28;20187;-46
2023/03/11 04:38:56;;;;;;;5.53;1.80;;;1.20;99.90;;;;;;5033200;28;20168;-50
2023/03/11 04:41:22;;;;;;;7.07;2.00;;;1.20;99.90;;;;;;5033250;28;20201;-52
2023/03/11 04:43:48;;;;;;;8.32;1.90;;;1.20;99.90;;;;;;5033625;28;20519;-52
2023/03/11 04:46:14;;;;;;;5.18;1.90;;;1.30;99.90;;;;;;5033197;28;20297;-48
2023/03/11 04:48:39;;;;;;;7.22;2.13;;;1.30;99.90;;;;;;5032971;28;20246;-43
2023/03/11 04:51:06;;;;;;;2.67;1.48;;;1.30;99.90;;;;;;5033425;28;20221;-49
2023/03/11 04:53:32;;;;;;;6.10;1.90;;;1.30;99.90;;;;;;5032933;28;20663;-46
2023/03/11 04:55:58;;;;;;;8.43;2.22;;;1.30;99.90;;;;;;5032950;28;20265;-46
2023/03/11 04:58:24;;;;;;;3.42;1.70;;;1.40;99.90;;;;;;5032919;28;20647;-50
2023/03/11 05:00:51;;;;;;;5.18;1.70;;;1.30;99.90;;;;;;5032766;28;20171;-44
2023/03/11 05:03:16;;;;;;;5.45;1.85;;;1.40;99.90;;;;;;5033103;28;20243;-45
2023/03/11 05:05:43;;;;;;;10.98;2.13;;;1.30;99.90;;;;;;5032040;28;20306;-44
2023/03/11 05:08:08;;;;;;;7.95;2.25;;;1.40;99.90;;;;;;5032344;28;20168;-48
2023/03/11 05:10:34;;;;;;;8.90;1.80;;;1.40;99.90;;;;;;5032239;28;20225;-45
2023/03/11 05:12:59;;;;;;;6.55;2.17;;;1.50;99.90;;;;;;5032798;28;20198;-43
2023/03/11 05:15:25;;;;;;;5.68;2.15;;;1.40;99.90;;;;;;5032523;28;20269;-46
2023/03/11 05:17:51;;;;;;;3.05;1.77;;;1.50;99.90;;;;;;5031706;28;20208;-48
2023/03/11 05:20:17;;;;;;;6.00;2.20;;;1.40;99.90;;;;;;5031695;28;20163;-49
2023/03/11 05:22:42;;;;;;;8.20;1.63;;;1.50;99.90;;;;;;5032516;28;20175;-45
2023/03/11 05:25:08;;;;;;;11.73;2.10;;;1.50;99.90;;;;;;5032439;28;20655;-51
2023/03/11 05:27:33;;;;;;;7.63;1.85;;;1.50;99.90;;;;;;5031096;28;20254;-48
2023/03/11 05:29:59;;;;;;;11.52;2.30;;;1.50;99.90;;;;;;5032304;28;20171;-48
2023/03/11 05:32:25;;;;;;;3.72;1.65;;;1.50;99.90;;;;;;5032260;28;20167;-51
2023/03/11 05:34:51;;;;;;;8.50;1.77;;;1.50;99.90;;;;;;5032041;28;20248;-48
2023/03/11 05:37:16;;;;;;;4.15;1.50;;;1.50;99.90;;;;;;5032472;28;20175;-49
2023/03/11 05:39:42;;;;;;;13.40;2.20;;;1.50;99.90;;;;;;5030605;28;20182;-48
2023/03/11 05:42:08;;;;;;;9.70;1.70;;;1.60;99.90;;;;;;5032214;28;20616;-51
2023/03/11 05:44:33;;;;;;;7.45;1.90;;;1.60;99.90;;;;;;5032258;28;20215;-50
2023/03/11 05:46:59;;;;;;;14.05;2.00;;;1.60;99.90;;;;;;5032000;28;20194;-52
2023/03/11 05:49:25;;;;;;;6.28;2.17;;;1.60;99.90;;;;;;5032311;28;20724;-43
2023/03/11 05:51:52;;;;;;;6.18;1.75;;;1.60;99.90;;;;;;5031719;28;20198;-44
2023/03/11 05:54:17;;;;;;;7.75;1.95;;;1.60;99.90;;;;;;5030933;28;20207;-42
2023/03/11 05:56:44;;;;;;;5.38;1.80;;;1.70;99.90;;;;;;5032280;28;20164;-43
2023/03/11 05:59:12;;;;;;;7.95;2.05;;;1.70;99.90;;;;;;5031808;28;20631;-42
2023/03/11 06:01:38;;;;;;;2.70;1.63;;;1.80;99.90;;;;;;5030624;28;20523;-43
2023/03/11 06:04:03;;;;;;;5.53;2.20;;;1.80;99.90;;;;;;5032156;28;20205;-42
2023/03/11 06:06:29;;;;;;;6.05;2.15;;;1.70;99.90;;;;;;5031296;28;20219;-42
2023/03/11 06:08:55;;;;;;;2.88;1.80;;;1.70;99.90;;;;;;5031477;28;20244;-43
2023/03/11 06:11:24;;;;;;;4.00;1.77;;;1.70;99.90;;;;;;5031558;28;20643;-42
2023/03/11 06:13:52;;;;;;;8.88;2.10;;;1.70;99.90;;;;;;5031578;28;20202;-42
2023/03/11 06:16:17;;;;;;;3.50;2.05;;;1.70;99.90;;;;;;5031943;28;20510;-42
2023/03/11 06:18:43;;;;;;;5.55;2.03;;;3.80;99.90;;;;;;5031863;28;20174;-43
2023/03/11 06:21:20;;;;;;;9.23;2.20;;;1.80;99.90;;;;;;5031449;28;20174;-43
2023/03/11 06:23:46;;;;;;;4.03;1.52;;;1.80;99.90;;;;;;5032126;28;20278;-43
2023/03/11 06:26:15;;;;;;;3.25;1.73;;;1.80;99.90;;;;;;5031367;28;20163;-44
2023/03/11 06:28:44;;;;;;;9.73;2.08;;;1.80;99.90;;;;;;5031243;28;20171;-44
2023/03/11 06:31:19;;;;;;;10.07;1.85;;;1.80;99.90;;;;;;5031327;28;20649;-43
2023/03/11 06:33:46;;;;;;;10.38;2.28;;;1.80;99.90;;;;;;5031731;28;20178;-43
2023/03/11 06:36:13;;;;;;;5.13;2.00;;;1.90;99.90;;;;;;5030949;28;20171;-43
2023/03/11 06:38:39;;;;;;;7.32;1.80;;;1.90;99.90;;;;;;5031240;28;20191;-49
2023/03/11 06:41:05;;;;;;;5.63;1.85;;;1.90;99.90;;;;;;5031031;28;20206;-53
2023/03/11 06:43:32;;;;;;;5.78;2.15;;;1.90;99.90;;;;;;5031164;28;20167;-47
2023/03/11 06:45:58;;;;;;;4.15;2.00;;;2.00;99.90;;;;;;5031318;28;20250;-43
2023/03/11 06:48:24;;;;;;;5.85;2.85;;;1.90;99.90;;;;;;5031374;28;20258;-43
2023/03/11 06:50:58;;;;;;;9.50;2.42;;;2.00;99.90;;;;;;5031032;28;20271;-47
2023/03/11 06:53:25;;;;;;;3.85;1.90;;;2.00;99.90;;;;;;5030682;28;20206;-46
2023/03/11 06:56:05;;;;;;;7.43;2.10;;;2.00;99.90;;;;;;5030987;28;20205;-52
2023/03/11 06:58:32;;;;;;;6.93;2.35;;;1.90;99.90;;;;;;5031121;28;20178;-50
2023/03/11 07:01:03;;;;;;;9.63;2.45;;;1.90;99.90;;;;;;5029758;28;20171;-46
2023/03/11 07:03:29;;;;;;;5.53;2.63;;;2.00;99.90;;;;;;5031003;28;20174;-51
2023/03/11 07:05:54;;;;;;;5.57;2.22;;;2.00;99.90;;;;;;5029310;28;20585;-51
2023/03/11 07:08:20;;;;;;;11.10;2.67;;;2.00;99.90;;;;;;5030740;28;20171;-47
2023/03/11 07:10:47;;;;;;;8.73;2.17;;;2.00;99.90;;;;;;5031300;28;20237;-51
2023/03/11 07:13:12;;;;;;;6.40;2.25;;;2.00;99.90;;;;;;5030863;28;20187;-50
2023/03/11 07:15:38;;;;;;;6.80;2.40;;;2.00;99.90;;;;;;5030783;28;20241;-44
2023/03/11 07:18:04;;;;;;;7.95;2.58;;;2.10;99.90;;;;;;5030814;28;20175;-52
2023/03/11 07:20:29;;;;;;;6.25;1.90;;;2.00;99.90;;;;;;5030775;28;20175;-52
2023/03/11 07:22:55;;;;;;;6.45;2.70;;;2.00;99.90;;;;;;5030864;28;20166;-51
2023/03/11 07:25:20;;;;;;;5.57;2.15;;;2.20;99.90;;;;;;5030349;28;20168;-52
2023/03/11 07:27:48;;;;;;;7.18;2.60;;;2.20;99.90;;;;;;5029266;28;20183;-47
2023/03/11 07:30:14;;;;;;;6.88;2.60;;;2.30;99.90;;;;;;5029896;28;20175;-52
2023/03/11 07:32:40;;;;;;;9.23;2.88;;;2.30;99.90;;;;;;5029298;28;20191;-48
2023/03/11 07:35:06;;;;;;;7.88;2.25;;;2.40;99.90;;;;;;5029049;28;20211;-46
2023/03/11 07:37:32;;;;;;;10.20;3.00;;;2.40;99.90;;;;;;5028642;28;20175;-49
2023/03/11 07:39:58;;;;;;;6.80;2.58;;;2.50;99.90;;;;;;5029224;28;20178;-51
2023/03/11 07:42:23;;;;;;;5.93;2.50;;;2.50;99.90;;;;;;5031081;28;20175;-52
2023/03/11 07:44:52;;;;;;;8.55;2.75;;;2.70;99.90;;;;;;5032549;28;20175;-50
2023/03/11 07:47:17;;;;;;;7.57;2.55;;;2.80;99.90;;;;;;5032466;28;20878;-43
2023/03/11 07:49:43;;;;;;;7.60;2.90;;;2.80;99.90;;;;;;5033014;28;20187;-48
2023/03/11 07:52:09;;;;;;;10.02;2.63;;;3.00;99.90;;;;;;5032620;28;20160;-50
2023/03/11 07:54:34;;;;;;;10.80;2.38;;;3.10;99.90;;;;;;5032427;28;20206;-52
2023/03/11 07:57:00;;;;;;;3.60;2.20;;;3.20;99.90;;;;;;5032562;28;20172;-51
2023/03/11 07:59:25;;;;;;;4.40;2.15;;;3.20;99.90;;;;;;5032551;28;20175;-44
2023/03/11 08:01:51;;;;;;;4.85;2.00;;;3.20;99.90;;;;;;5032386;28;20213;-45
2023/03/11 08:04:16;;;;;;;8.63;2.38;;;3.20;99.90;;;;;;5032635;28;20194;-43
2023/03/11 08:06:44;;;;;;;7.30;2.90;;;3.30;99.90;;;;;;5031843;28;20215;-44
2023/03/11 08:09:10;;;;;;;7.55;2.42;;;3.40;99.90;;;;;;5032458;28;20229;-46
2023/03/11 08:11:36;;;;;;;13.60;2.72;;;3.50;99.90;;;;;;5032194;28;20199;-44
2023/03/11 08:14:03;;;;;;;10.38;3.22;;;3.50;99.90;;;;;;5031837;28;20191;-50
2023/03/11 08:16:29;;;;;;;6.50;2.60;;;3.50;99.90;;;;;;5032346;28;20524;-48
2023/03/11 08:18:55;;;;;;;5.30;2.00;;;3.60;99.90;;;;;;5032205;28;20220;-50
2023/03/11 08:21:23;;;;;;;11.48;2.80;;;3.70;99.90;;;;;;5032081;28;20554;-50
2023/03/11 08:23:49;;;;;;;7.57;2.47;;;3.50;99.90;;;;;;5032034;28;20650;-52
2023/03/11 08:26:18;;;;;;;12.50;2.75;;;3.70;99.90;;;;;;5032387;28;20175;-53
2023/03/11 08:28:43;;;;;;;14.35;3.10;;;3.70;99.90;;;;;;5032585;28;20175;-47
2023/03/11 08:31:17;;;;;;;10.20;2.75;;;3.80;99.90;;;;;;5030403;28;20255;-49
2023/03/11 08:33:45;;;;;;;5.07;2.55;;;3.90;99.90;;;;;;5032689;28;20171;-50
2023/03/11 08:36:11;;;;;;;7.50;2.50;;;3.90;99.90;;;;;;5031768;28;20190;-45
2023/03/11 08:38:37;;;;;;;5.95;2.65;;;4.00;99.90;;;;;;5029836;28;20266;-45
2023/03/11 08:41:03;;;;;;;7.10;2.78;;;4.00;99.90;;;;;;5031807;28;20171;-45
2023/03/11 08:43:29;;;;;;;5.93;2.42;;;4.10;99.90;;;;;;5014061;28;20171;-45
2023/03/11 08:45:54;;;;;;;7.65;3.10;;;4.20;99.90;;;;;;5031751;28;20221;-46
2023/03/11 08:48:20;;;;;;;8.88;2.72;;;4.40;99.90;;;;;;5031570;28;20175;-45
2023/03/11 08:50:46;;;;;;;13.10;2.92;;;4.30;99.90;;;;;;5032189;28;20180;-50
2023/03/11 08:53:11;;;;;;;5.10;2.22;;;4.40;99.90;;;;;;5030699;28;20682;-51
2023/03/11 08:55:37;;;;;;;8.73;2.38;;;4.60;99.90;;;;;;5031670;28;20210;-48
2023/03/11 08:58:03;;;;;;;6.72;2.20;;;4.70;99.90;;;;;;5031784;28;20250;-47
2023/03/11 09:00:28;;;;;;;4.40;2.30;;;4.70;99.90;;;;;;5032192;28;20198;-50
2023/03/11 09:02:54;;;;;;;6.57;2.47;;;4.70;99.90;;;;;;5031684;28;20175;-48
2023/03/11 09:05:19;;;;;;;6.70;2.42;;;4.90;99.90;;;;;;5031349;28;20203;-48
2023/03/11 09:07:45;;;;;;;10.05;2.55;;;5.00;99.90;;;;;;5031660;28;20267;-52
2023/03/11 09:10:14;;;;;;;5.20;2.10;;;5.00;99.90;;;;;;5031748;28;20176;-48
2023/03/11 09:12:40;;;;;;;6.43;2.13;;;5.20;99.90;;;;;;5031482;28;20250;-52
2023/03/11 09:15:07;;;;;;;5.53;2.25;;;5.20;99.90;;;;;;5031561;28;20290;-51
2023/03/11 09:17:33;;;;;;;14.52;2.80;;;5.40;99.90;;;;;;5031450;28;20628;-50
2023/03/11 09:20:00;;;;;;;14.50;2.72;;;5.50;99.90;;;;;;5031326;28;20642;-50
2023/03/11 09:22:26;;;;;;;2.63;1.80;;;5.60;99.90;;;;;;5031180;28;20350;-45
2023/03/11 09:24:51;;;;;;;6.22;1.73;;;5.80;99.90;;;;;;5030312;28;20574;-44
2023/03/11 09:27:17;;;;;;;8.20;1.98;;;6.00;99.90;;;;;;5031243;28;20169;-45
2023/03/11 09:29:42;;;;;;;5.78;1.98;;;6.10;99.90;;;;;;5031523;28;20179;-44
2023/03/11 09:32:12;;;;;;;4.45;2.00;;;6.00;99.90;;;;;;5031107;28;20202;-44
2023/03/11 09:34:37;;;;;;;3.65;1.48;;;5.80;99.90;;;;;;5031364;28;20298;-44
2023/03/11 09:37:03;;;;;;;3.53;1.50;;;5.90;99.90;;;;;;5030813;28;20629;-44
2023/03/11 09:39:28;;;;;;;4.85;1.50;;;5.70;99.90;;;;;;5029788;28;20175;-44
2023/03/11 09:41:57;;;;;;;2.47;1.20;;;6.00;99.90;;;;;;5030979;28;20658;-44
2023/03/11 09:45:30;;;;;;;5.75;2.28;;;5.90;99.90;;;;;;5030783;28;20515;-44
2023/03/11 09:48:19;;;;;;;3.22;1.52;;;6.00;99.90;;;;;;4989209;28;20180;-43
2023/03/11 09:50:52;;;;;;;5.07;2.22;;;5.70;99.90;;;;;;4989194;28;20198;-43
2023/03/11 09:53:23;;;;;;;4.93;1.63;;;5.60;99.90;;;;;;5016643;28;20194;-44
2023/03/11 09:55:55;;;;;;;2.90;1.30;;;5.60;99.90;;;;;;5029504;28;20670;-43
2023/03/11 09:58:35;;;;;;;7.10;1.27;;;6.10;99.90;;;;;;5029685;28;20175;-44
2023/03/11 10:01:03;;;;;;;3.33;1.55;;;6.40;99.90;;;;;;5023370;28;20651;-43
2023/03/11 10:03:38;;;;;;;3.72;1.50;;;6.60;99.90;;;;;;5030032;28;20179;-43
2023/03/11 10:06:15;;;;;;;3.95;1.27;;;6.80;99.90;;;;;;5029635;28;20685;-43
2023/03/11 10:09:03;;;;;;;5.03;1.25;;;6.80;99.90;;;;;;5029970;28;20660;-44
2023/03/11 10:11:44;;;;;;;1.80;0.85;;;6.70;99.90;;;;;;5030510;28;20261;-43
2023/03/11 10:14:29;;;;;;;2.63;1.33;;;6.80;99.90;;;;;;5029878;28;20191;-43
2023/03/11 10:17:17;;;;;;;2.70;1.27;;;6.70;99.10;;;;;;5022081;28;20200;-44
2023/03/11 10:20:13;;;;;;;4.45;1.67;;;7.20;99.10;;;;;;5030301;28;20221;-43
2023/03/11 10:23:14;;;;;;;4.55;1.42;;;7.40;98.70;;;;;;5029707;28;20215;-43
2023/03/11 10:25:45;;;;;;;5.65;1.70;;;7.70;97.20;;;;;;5029360;28;20182;-44
2023/03/11 10:28:17;;;;;;;3.10;1.40;;;7.70;97.60;;;;;;5028311;28;20167;-44
2023/03/11 10:30:50;;;;;;;4.03;1.40;;;7.60;99.00;;;;;;5030306;28;20599;-44
2023/03/11 10:33:41;;;;;;;6.22;1.30;;;7.70;98.80;;;;;;5030126;28;20690;-44
2023/03/11 10:36:13;;;;;;;5.40;1.35;;;7.70;97.60;;;;;;5028416;28;20195;-44
2023/03/11 10:38:46;;;;;;;2.25;0.75;;;7.20;97.80;;;;;;5029390;28;20647;-43
2023/03/11 10:41:28;;;;;;;4.00;1.30;;;7.20;97.70;;;;;;5030121;28;20167;-43
2023/03/11 10:44:08;;;;;;;5.00;0.90;;;7.20;98.00;;;;;;5030000;28;20667;-44
2023/03/11 10:46:34;;;;;;;11.25;3.08;;;7.20;99.00;;;;;;5027884;28;20589;-45
2023/03/11 10:49:00;;;;;;;5.00;1.13;;;7.30;97.70;;;;;;5029632;28;20167;-45
2023/03/11 10:51:35;;;;;;;5.10;1.70;;;7.60;96.50;;;;;;5029486;28;20691;-46
2023/03/11 10:54:02;;;;;;;2.53;1.33;;;7.90;96.20;;;;;;5029315;28;20194;-46
2023/03/11 10:56:37;;;;;;;2.85;1.30;;;8.00;95.60;;;;;;5029480;28;20175;-44
2023/03/11 10:59:22;;;;;;;2.92;1.17;;;8.10;94.90;;;;;;5027840;28;20654;-50
2023/03/11 11:01:59;;;;;;;3.95;1.10;;;7.90;94.30;;;;;;5029556;28;20222;-48
2023/03/11 11:04:33;;;;;;;3.55;1.35;;;7.80;93.60;;;;;;5009443;28;20171;-45
2023/03/11 11:07:33;;;;;;;4.97;1.13;;;7.70;93.20;;;;;;5013399;28;20746;-46
2023/03/11 11:10:21;;;;;;;2.97;1.10;;;7.80;93.50;;;;;;5029884;28;20194;-49
2023/03/11 11:12:58;;;;;;;3.20;1.20;;;7.80;93.00;;;;;;5028390;28;20187;-43
2023/03/11 11:15:31;;;;;;;3.95;1.38;;;7.70;92.60;;;;;;5029634;28;20211;-50
2023/03/11 11:18:04;;;;;;;2.20;1.05;;;7.60;94.30;;;;;;5032721;28;20262;-43
2023/03/11 11:20:30;;;;;;;2.38;1.02;;;7.80;95.50;;;;;;5033402;28;20178;-43
2023/03/11 11:23:00;;;;;;;6.30;1.42;;;7.70;93.20;;;;;;5031872;28;20294;-43
2023/03/11 11:25:35;;;;;;;3.15;1.85;;;7.40;93.60;;;;;;5033492;28;20168;-43
2023/03/11 11:28:22;;;;;;;4.60;1.60;;;7.30;95.30;;;;;;5033316;28;20634;-42
2023/03/11 11:31:24;;;;;;;7.32;2.33;;;7.10;94.30;;;;;;5033030;28;20206;-42
2023/03/11 11:33:52;;;;;;;2.80;1.20;;;7.10;97.00;;;;;;5033102;28;20285;-50
2023/03/11 11:36:23;;;;;;;1.95;1.25;;;8.50;98.80;;;;;;5033360;28;20172;-54
2023/03/11 11:38:51;;;;;;;3.38;1.75;;;6.90;97.80;;;;;;5032915;28;20222;-45
2023/03/11 11:41:20;;;;;;;5.88;1.75;;;7.00;96.90;;;;;;5034402;28;20178;-43
2023/03/11 11:43:51;;;;;;;4.78;1.95;;;7.00;96.20;;;;;;5035067;28;20282;-51
2023/03/11 11:46:26;;;;;;;6.20;2.00;;;7.10;95.70;;;;;;5034373;28;20163;-45
2023/03/11 11:49:14;;;;;;;5.03;2.03;;;7.60;96.20;;;;;;5034325;28;20170;-42
2023/03/11 11:51:52;;;;;;;10.20;1.30;;;7.20;94.90;;;;;;5034332;28;20636;-43
2023/03/11 11:54:30;;;;;;;6.97;1.70;;;7.30;95.70;;;;;;5033870;28;20724;-47
2023/03/11 11:56:57;;;;;;;5.03;2.40;;;7.30;96.30;;;;;;5034171;28;20175;-46
2023/03/11 11:59:24;;;;;;;3.33;2.40;;;7.10;97.00;;;;;;5034116;28;20171;-51
2023/03/11 12:02:05;;;;;;;6.80;1.63;;;7.00;97.10;;;;;;5034193;28;20171;-49
2023/03/11 12:04:46;;;;;;;5.43;1.35;;;6.90;97.80;;;;;;5033048;28;20172;-43
2023/03/11 12:07:26;;;;;;;4.40;1.77;;;7.00;99.50;;;;;;5034042;28;20562;-44
2023/03/11 12:10:04;;;;;;;4.95;2.13;;;7.10;99.30;;;;;;5033783;28;20585;-46
2023/03/11 12:12:49;;;;;;;1.30;1.20;;;7.00;97.70;;;;;;5033846;28;20199;-50
2023/03/11 12:15:25;;;;;;;4.50;1.58;;;7.10;97.60;;;;;;5034125;28;20207;-48
2023/03/11 12:17:56;;;;;;;5.28;1.42;;;7.20;97.50;;;;;;5033626;28;20167;-45
2023/03/11 12:20:35;;;;;;;3.03;1.40;;;7.30;97.60;;;;;;5033620;28;20167;-43
2023/03/11 12:23:19;;;;;;;6.35;1.52;;;7.00;99.30;;;;;;5033668;28;20699;-43
2023/03/11 12:26:02;;;;;;;4.63;1.75;;;6.80;99.90;;;;;;5034046;28;20170;-44
2023/03/11 12:28:39;;;;;;;3.45;1.45;;;6.80;99.90;;;;;;5032019;28;20175;-51
2023/03/11 12:31:10;;;;;;;3.80;1.65;;;6.80;99.90;;;;;;5033282;28;20178;-42
2023/03/11 12:33:40;;;;;;;4.07;1.38;;;7.00;98.70;;;;;;5033857;28;20226;-42
2023/03/11 12:36:18;;;;;;;3.88;1.60;;;7.10;98.80;;;;;;5033352;28;20203;-42
2023/03/11 12:38:47;;;;;;;2.58;1.15;;;7.30;99.90;;;;;;5033578;28;20183;-43
2023/03/11 12:41:13;;;;;;;6.05;1.67;;;7.30;99.90;;;;;;5033667;28;20734;-45
2023/03/11 12:43:41;;;;;;;5.97;1.73;;;7.30;99.90;;;;;;5032032;28;20179;-44
2023/03/11 12:46:09;;;;;;;4.93;1.35;;;7.20;99.60;;;;;;5033341;28;20171;-44
2023/03/11 12:48:49;;;;;;;3.10;1.42;;;7.10;99.80;;;;;;5032124;28;20531;-45
2023/03/11 12:51:26;;;;;;;5.30;1.63;;;6.90;99.50;;;;;;5033436;28;20233;-43
2023/03/11 12:53:55;;;;;;;8.02;2.42;;;7.20;99.90;;;;;;5032953;28;20170;-42
2023/03/11 12:56:38;;;;;;;2.88;1.40;;;7.00;97.80;;;;;;5033024;28;20172;-42
2023/03/11 12:59:07;;;;;;;1.88;1.30;;;7.20;97.80;;;;;;5033208;28;20258;-42
2023/03/11 13:01:50;;;;;;;4.47;1.40;;;7.50;97.50;;;;;;5032916;28;20229;-43
2023/03/11 13:04:31;;;;;;;3.13;1.35;;;7.70;96.60;;;;;;5033264;28;20167;-45
2023/03/11 13:07:11;;;;;;;2.53;1.10;;;7.90;97.50;;;;;;5032818;28;20218;-43